sensor_id;sensor_type;location;lat;lon;timestamp;P1;durP1;ratioP1;P2;durP2;ratioP2
9372;SDS011;10838;52.350;9.790;2023-11-21T00:01:43;8.67;;;6.33;;
9372;SDS011;10838;52.350;9.790;2023-11-21T00:04:10;9.47;;;6.37;;
9372;SDS011;10838;52.350;9.790;2023-11-21T00:06:37;9.87;;;6.17;;
9372;SDS011;10838;52.350;9.790;2023-11-21T00:09:04;6.77;;;5.50;;
9372;SDS011;10838;52.350;9.790;2023-11-21T00:11:33;10.80;;;6.10;;
9372;SDS011;10838;52.350;9.790;2023-11-21T00:13:59;9.43;;;6.63;;
9372;SDS011;10838;52.350;9.790;2023-11-21T00:16:26;11.97;;;6.87;;
9372;SDS011;10838;52.350;9.790;2023-11-21T00:18:52;12.37;;;6.90;;
9372;SDS011;10838;52.350;9.790;2023-11-21T00:21:20;14.63;;;6.93;;
9372;SDS011;10838;52.350;9.790;2023-11-21T00:23:47;15.53;;;7.17;;
9372;SDS011;10838;52.350;9.790;2023-11-21T00:26:14;14.70;;;6.63;;
9372;SDS011;10838;52.350;9.790;2023-11-21T00:28:40;11.17;;;7.07;;
9372;SDS011;10838;52.350;9.790;2023-11-21T00:31:07;11.53;;;6.60;;
9372;SDS011;10838;52.350;9.790;2023-11-21T00:33:34;8.83;;;6.97;;
9372;SDS011;10838;52.350;9.790;2023-11-21T00:35:59;10.77;;;6.50;;
9372;SDS011;10838;52.350;9.790;2023-11-21T00:38:27;15.23;;;7.53;;
9372;SDS011;10838;52.350;9.790;2023-11-21T00:40:55;8.63;;;6.97;;
9372;SDS011;10838;52.350;9.790;2023-11-21T00:43:21;14.60;;;7.57;;
9372;SDS011;10838;52.350;9.790;2023-11-21T00:45:48;11.37;;;6.90;;
9372;SDS011;10838;52.350;9.790;2023-11-21T00:48:16;15.37;;;6.47;;
9372;SDS011;10838;52.350;9.790;2023-11-21T00:50:43;13.23;;;7.13;;
9372;SDS011;10838;52.350;9.790;2023-11-21T00:53:10;12.10;;;6.60;;
9372;SDS011;10838;52.350;9.790;2023-11-21T00:55:38;11.57;;;6.60;;
9372;SDS011;10838;52.350;9.790;2023-11-21T00:58:05;9.60;;;6.80;;
9372;SDS011;10838;52.350;9.790;2023-11-21T01:00:32;14.57;;;6.60;;
9372;SDS011;10838;52.350;9.790;2023-11-21T01:02:58;9.77;;;6.90;;
9372;SDS011;10838;52.350;9.790;2023-11-21T01:05:25;13.83;;;6.87;;
9372;SDS011;10838;52.350;9.790;2023-11-21T01:07:52;16.00;;;7.70;;
9372;SDS011;10838;52.350;9.790;2023-11-21T01:10:19;7.83;;;6.93;;
9372;SDS011;10838;52.350;9.790;2023-11-21T01:12:47;13.77;;;6.60;;
9372;SDS011;10838;52.350;9.790;2023-11-21T01:15:13;10.10;;;6.67;;
9372;SDS011;10838;52.350;9.790;2023-11-21T01:17:40;14.73;;;8.00;;
9372;SDS011;10838;52.350;9.790;2023-11-21T01:20:08;18.23;;;8.70;;
9372;SDS011;10838;52.350;9.790;2023-11-21T01:22:37;17.97;;;9.33;;
9372;SDS011;10838;52.350;9.790;2023-11-21T01:25:04;15.30;;;9.07;;
9372;SDS011;10838;52.350;9.790;2023-11-21T01:27:32;20.03;;;9.83;;
9372;SDS011;10838;52.350;9.790;2023-11-21T01:30:00;17.20;;;9.57;;
9372;SDS011;10838;52.350;9.790;2023-11-21T01:32:27;13.07;;;9.00;;
9372;SDS011;10838;52.350;9.790;2023-11-21T01:34:54;13.77;;;8.30;;
9372;SDS011;10838;52.350;9.790;2023-11-21T01:37:21;15.60;;;8.30;;
9372;SDS011;10838;52.350;9.790;2023-11-21T01:39:47;13.03;;;7.83;;
9372;SDS011;10838;52.350;9.790;2023-11-21T01:42:14;12.47;;;8.03;;
9372;SDS011;10838;52.350;9.790;2023-11-21T01:44:41;17.87;;;8.67;;
9372;SDS011;10838;52.350;9.790;2023-11-21T01:47:09;16.63;;;8.57;;
9372;SDS011;10838;52.350;9.790;2023-11-21T01:49:36;15.00;;;8.10;;
9372;SDS011;10838;52.350;9.790;2023-11-21T01:52:03;16.00;;;8.40;;
9372;SDS011;10838;52.350;9.790;2023-11-21T01:54:30;12.03;;;8.63;;
9372;SDS011;10838;52.350;9.790;2023-11-21T01:56:57;18.27;;;9.17;;
9372;SDS011;10838;52.350;9.790;2023-11-21T01:59:28;14.63;;;9.20;;
9372;SDS011;10838;52.350;9.790;2023-11-21T02:01:59;17.70;;;9.37;;
9372;SDS011;10838;52.350;9.790;2023-11-21T02:04:27;20.37;;;10.33;;
9372;SDS011;10838;52.350;9.790;2023-11-21T02:06:54;22.23;;;9.83;;
9372;SDS011;10838;52.350;9.790;2023-11-21T02:09:23;17.10;;;9.43;;
9372;SDS011;10838;52.350;9.790;2023-11-21T02:11:52;21.17;;;9.30;;
9372;SDS011;10838;52.350;9.790;2023-11-21T02:14:19;18.80;;;10.47;;
9372;SDS011;10838;52.350;9.790;2023-11-21T02:16:47;18.03;;;10.10;;
9372;SDS011;10838;52.350;9.790;2023-11-21T02:19:15;15.27;;;9.53;;
9372;SDS011;10838;52.350;9.790;2023-11-21T02:21:46;22.37;;;9.93;;
9372;SDS011;10838;52.350;9.790;2023-11-21T02:24:16;16.80;;;10.13;;
9372;SDS011;10838;52.350;9.790;2023-11-21T02:26:43;16.80;;;9.07;;
9372;SDS011;10838;52.350;9.790;2023-11-21T02:29:11;11.70;;;8.10;;
9372;SDS011;10838;52.350;9.790;2023-11-21T02:31:38;16.57;;;9.10;;
9372;SDS011;10838;52.350;9.790;2023-11-21T02:34:12;15.87;;;8.33;;
9372;SDS011;10838;52.350;9.790;2023-11-21T02:36:39;14.20;;;9.53;;
9372;SDS011;10838;52.350;9.790;2023-11-21T02:39:07;18.17;;;9.33;;
9372;SDS011;10838;52.350;9.790;2023-11-21T02:41:35;16.37;;;9.07;;
9372;SDS011;10838;52.350;9.790;2023-11-21T02:44:02;14.37;;;8.23;;
9372;SDS011;10838;52.350;9.790;2023-11-21T02:46:31;11.27;;;8.80;;
9372;SDS011;10838;52.350;9.790;2023-11-21T02:48:58;11.83;;;8.50;;
9372;SDS011;10838;52.350;9.790;2023-11-21T02:51:25;11.87;;;8.40;;
9372;SDS011;10838;52.350;9.790;2023-11-21T02:53:52;10.27;;;7.97;;
9372;SDS011;10838;52.350;9.790;2023-11-21T02:56:18;13.47;;;8.30;;
9372;SDS011;10838;52.350;9.790;2023-11-21T02:58:46;11.63;;;8.37;;
9372;SDS011;10838;52.350;9.790;2023-11-21T03:01:13;15.37;;;9.00;;
9372;SDS011;10838;52.350;9.790;2023-11-21T03:03:39;15.87;;;8.87;;
9372;SDS011;10838;52.350;9.790;2023-11-21T03:06:06;15.53;;;8.87;;
9372;SDS011;10838;52.350;9.790;2023-11-21T03:08:33;14.83;;;8.60;;
9372;SDS011;10838;52.350;9.790;2023-11-21T03:11:00;16.27;;;8.83;;
9372;SDS011;10838;52.350;9.790;2023-11-21T03:13:28;13.23;;;8.87;;
9372;SDS011;10838;52.350;9.790;2023-11-21T03:15:56;12.87;;;8.50;;
9372;SDS011;10838;52.350;9.790;2023-11-21T03:18:23;16.47;;;8.73;;
9372;SDS011;10838;52.350;9.790;2023-11-21T03:20:51;13.40;;;8.80;;
9372;SDS011;10838;52.350;9.790;2023-11-21T03:23:18;16.10;;;8.97;;
9372;SDS011;10838;52.350;9.790;2023-11-21T03:25:45;16.77;;;8.93;;
9372;SDS011;10838;52.350;9.790;2023-11-21T03:28:11;17.70;;;9.73;;
9372;SDS011;10838;52.350;9.790;2023-11-21T03:30:38;19.50;;;10.03;;
9372;SDS011;10838;52.350;9.790;2023-11-21T03:33:06;19.47;;;11.40;;
9372;SDS011;10838;52.350;9.790;2023-11-21T03:35:32;20.60;;;11.60;;
9372;SDS011;10838;52.350;9.790;2023-11-21T03:37:59;16.53;;;10.33;;
9372;SDS011;10838;52.350;9.790;2023-11-21T03:40:26;17.47;;;10.10;;
9372;SDS011;10838;52.350;9.790;2023-11-21T03:42:52;20.77;;;10.07;;
9372;SDS011;10838;52.350;9.790;2023-11-21T03:45:19;18.30;;;11.20;;
9372;SDS011;10838;52.350;9.790;2023-11-21T03:47:45;22.50;;;10.30;;
9372;SDS011;10838;52.350;9.790;2023-11-21T03:50:14;19.40;;;10.40;;
9372;SDS011;10838;52.350;9.790;2023-11-21T03:52:40;24.83;;;11.03;;
9372;SDS011;10838;52.350;9.790;2023-11-21T03:55:07;22.03;;;11.33;;
9372;SDS011;10838;52.350;9.790;2023-11-21T03:57:35;20.07;;;11.97;;
9372;SDS011;10838;52.350;9.790;2023-11-21T04:00:02;25.17;;;12.57;;
9372;SDS011;10838;52.350;9.790;2023-11-21T04:02:33;21.40;;;13.00;;
9372;SDS011;10838;52.350;9.790;2023-11-21T04:05:00;21.33;;;11.80;;
9372;SDS011;10838;52.350;9.790;2023-11-21T04:07:28;26.03;;;13.33;;
9372;SDS011;10838;52.350;9.790;2023-11-21T04:09:54;26.10;;;13.10;;
9372;SDS011;10838;52.350;9.790;2023-11-21T04:12:21;25.30;;;13.97;;
9372;SDS011;10838;52.350;9.790;2023-11-21T04:14:48;30.87;;;14.13;;
9372;SDS011;10838;52.350;9.790;2023-11-21T04:17:17;21.40;;;12.83;;
9372;SDS011;10838;52.350;9.790;2023-11-21T04:19:44;36.50;;;14.60;;
9372;SDS011;10838;52.350;9.790;2023-11-21T04:22:11;30.63;;;15.13;;
9372;SDS011;10838;52.350;9.790;2023-11-21T04:24:39;28.67;;;15.00;;
9372;SDS011;10838;52.350;9.790;2023-11-21T04:27:05;28.27;;;14.87;;
9372;SDS011;10838;52.350;9.790;2023-11-21T04:29:32;35.43;;;16.57;;
9372;SDS011;10838;52.350;9.790;2023-11-21T04:31:59;32.20;;;15.33;;
9372;SDS011;10838;52.350;9.790;2023-11-21T04:34:27;25.90;;;15.07;;
9372;SDS011;10838;52.350;9.790;2023-11-21T04:36:55;33.17;;;16.23;;
9372;SDS011;10838;52.350;9.790;2023-11-21T04:39:23;35.23;;;16.47;;
9372;SDS011;10838;52.350;9.790;2023-11-21T04:41:51;35.10;;;17.23;;
9372;SDS011;10838;52.350;9.790;2023-11-21T04:44:18;29.90;;;16.60;;
9372;SDS011;10838;52.350;9.790;2023-11-21T04:46:45;38.17;;;21.20;;
9372;SDS011;10838;52.350;9.790;2023-11-21T04:49:11;42.23;;;22.53;;
9372;SDS011;10838;52.350;9.790;2023-11-21T04:51:38;37.63;;;20.60;;
9372;SDS011;10838;52.350;9.790;2023-11-21T04:54:04;47.20;;;21.07;;
9372;SDS011;10838;52.350;9.790;2023-11-21T04:56:31;47.63;;;20.17;;
9372;SDS011;10838;52.350;9.790;2023-11-21T04:58:59;50.93;;;21.20;;
9372;SDS011;10838;52.350;9.790;2023-11-21T05:01:26;51.47;;;21.87;;
9372;SDS011;10838;52.350;9.790;2023-11-21T05:03:52;53.73;;;22.10;;
9372;SDS011;10838;52.350;9.790;2023-11-21T05:06:19;59.83;;;22.63;;
9372;SDS011;10838;52.350;9.790;2023-11-21T05:08:46;51.63;;;21.83;;
9372;SDS011;10838;52.350;9.790;2023-11-21T05:11:22;53.70;;;21.80;;
9372;SDS011;10838;52.350;9.790;2023-11-21T05:13:49;55.27;;;21.40;;
9372;SDS011;10838;52.350;9.790;2023-11-21T05:16:17;50.37;;;21.17;;
9372;SDS011;10838;52.350;9.790;2023-11-21T05:18:45;59.10;;;21.13;;
9372;SDS011;10838;52.350;9.790;2023-11-21T05:21:11;52.33;;;21.40;;
9372;SDS011;10838;52.350;9.790;2023-11-21T05:23:38;49.43;;;21.40;;
9372;SDS011;10838;52.350;9.790;2023-11-21T05:26:05;49.20;;;22.30;;
9372;SDS011;10838;52.350;9.790;2023-11-21T05:28:32;50.03;;;20.53;;
9372;SDS011;10838;52.350;9.790;2023-11-21T05:30:59;42.00;;;20.37;;
9372;SDS011;10838;52.350;9.790;2023-11-21T05:33:27;45.67;;;19.57;;
9372;SDS011;10838;52.350;9.790;2023-11-21T05:35:54;41.37;;;18.60;;
9372;SDS011;10838;52.350;9.790;2023-11-21T05:38:21;35.83;;;17.03;;
9372;SDS011;10838;52.350;9.790;2023-11-21T05:40:47;40.37;;;17.93;;
9372;SDS011;10838;52.350;9.790;2023-11-21T05:43:14;50.43;;;17.87;;
9372;SDS011;10838;52.350;9.790;2023-11-21T05:45:41;38.50;;;16.90;;
9372;SDS011;10838;52.350;9.790;2023-11-21T05:48:08;32.83;;;16.20;;
9372;SDS011;10838;52.350;9.790;2023-11-21T05:50:36;32.83;;;16.30;;
9372;SDS011;10838;52.350;9.790;2023-11-21T05:53:02;32.00;;;15.37;;
9372;SDS011;10838;52.350;9.790;2023-11-21T05:55:29;33.73;;;16.50;;
9372;SDS011;10838;52.350;9.790;2023-11-21T05:57:56;34.63;;;15.83;;
9372;SDS011;10838;52.350;9.790;2023-11-21T06:00:22;29.03;;;14.83;;
9372;SDS011;10838;52.350;9.790;2023-11-21T06:02:50;29.07;;;16.20;;
9372;SDS011;10838;52.350;9.790;2023-11-21T06:05:19;28.50;;;14.20;;
9372;SDS011;10838;52.350;9.790;2023-11-21T06:07:49;24.60;;;14.60;;
9372;SDS011;10838;52.350;9.790;2023-11-21T06:10:16;25.43;;;13.27;;
9372;SDS011;10838;52.350;9.790;2023-11-21T06:12:44;24.63;;;13.47;;
9372;SDS011;10838;52.350;9.790;2023-11-21T06:15:11;23.63;;;12.80;;
9372;SDS011;10838;52.350;9.790;2023-11-21T06:17:39;21.80;;;11.83;;
9372;SDS011;10838;52.350;9.790;2023-11-21T06:20:08;22.03;;;12.07;;
9372;SDS011;10838;52.350;9.790;2023-11-21T06:22:39;21.40;;;11.10;;
9372;SDS011;10838;52.350;9.790;2023-11-21T06:25:08;18.00;;;11.23;;
9372;SDS011;10838;52.350;9.790;2023-11-21T06:27:38;19.43;;;11.40;;
9372;SDS011;10838;52.350;9.790;2023-11-21T06:30:06;23.33;;;11.60;;
9372;SDS011;10838;52.350;9.790;2023-11-21T06:32:34;19.60;;;10.80;;
9372;SDS011;10838;52.350;9.790;2023-11-21T06:35:01;23.43;;;12.50;;
9372;SDS011;10838;52.350;9.790;2023-11-21T06:37:29;21.97;;;11.27;;
9372;SDS011;10838;52.350;9.790;2023-11-21T06:39:57;18.60;;;11.87;;
9372;SDS011;10838;52.350;9.790;2023-11-21T06:42:25;22.87;;;12.50;;
9372;SDS011;10838;52.350;9.790;2023-11-21T06:44:54;19.17;;;11.13;;
9372;SDS011;10838;52.350;9.790;2023-11-21T06:47:22;17.10;;;11.23;;
9372;SDS011;10838;52.350;9.790;2023-11-21T06:49:50;15.53;;;9.90;;
9372;SDS011;10838;52.350;9.790;2023-11-21T06:52:17;13.33;;;8.73;;
9372;SDS011;10838;52.350;9.790;2023-11-21T06:54:43;10.05;;;6.90;;
9372;SDS011;10838;52.350;9.790;2023-11-21T06:57:10;9.57;;;6.20;;
9372;SDS011;10838;52.350;9.790;2023-11-21T06:59:38;8.27;;;5.83;;
9372;SDS011;10838;52.350;9.790;2023-11-21T07:02:05;12.43;;;6.37;;
9372;SDS011;10838;52.350;9.790;2023-11-21T07:04:32;12.73;;;5.80;;
9372;SDS011;10838;52.350;9.790;2023-11-21T07:06:59;7.47;;;5.83;;
9372;SDS011;10838;52.350;9.790;2023-11-21T07:09:25;6.87;;;6.13;;
9372;SDS011;10838;52.350;9.790;2023-11-21T07:11:52;6.80;;;6.03;;
9372;SDS011;10838;52.350;9.790;2023-11-21T07:14:19;11.17;;;6.63;;
9372;SDS011;10838;52.350;9.790;2023-11-21T07:16:47;6.93;;;6.23;;
9372;SDS011;10838;52.350;9.790;2023-11-21T07:19:14;7.63;;;6.30;;
9372;SDS011;10838;52.350;9.790;2023-11-21T07:21:41;7.00;;;6.30;;
9372;SDS011;10838;52.350;9.790;2023-11-21T07:24:07;7.07;;;6.37;;
9372;SDS011;10838;52.350;9.790;2023-11-21T07:26:36;7.07;;;6.37;;
9372;SDS011;10838;52.350;9.790;2023-11-21T07:29:03;7.07;;;6.37;;
9372;SDS011;10838;52.350;9.790;2023-11-21T07:31:31;7.37;;;6.40;;
9372;SDS011;10838;52.350;9.790;2023-11-21T07:34:00;7.47;;;6.63;;
9372;SDS011;10838;52.350;9.790;2023-11-21T07:36:27;7.83;;;6.37;;
9372;SDS011;10838;52.350;9.790;2023-11-21T07:38:54;6.80;;;6.20;;
9372;SDS011;10838;52.350;9.790;2023-11-21T07:41:20;6.63;;;5.97;;
9372;SDS011;10838;52.350;9.790;2023-11-21T07:43:47;12.33;;;7.13;;
9372;SDS011;10838;52.350;9.790;2023-11-21T07:46:14;7.23;;;6.23;;
9372;SDS011;10838;52.350;9.790;2023-11-21T07:48:41;7.43;;;6.20;;
9372;SDS011;10838;52.350;9.790;2023-11-21T07:51:10;7.00;;;6.37;;
9372;SDS011;10838;52.350;9.790;2023-11-21T07:53:38;7.33;;;6.63;;
9372;SDS011;10838;52.350;9.790;2023-11-21T07:56:05;6.80;;;6.10;;
9372;SDS011;10838;52.350;9.790;2023-11-21T07:58:33;9.00;;;6.67;;
9372;SDS011;10838;52.350;9.790;2023-11-21T08:01:00;6.73;;;6.03;;
9372;SDS011;10838;52.350;9.790;2023-11-21T08:03:27;6.50;;;5.90;;
9372;SDS011;10838;52.350;9.790;2023-11-21T08:05:55;6.70;;;5.97;;
9372;SDS011;10838;52.350;9.790;2023-11-21T08:08:24;9.20;;;6.03;;
9372;SDS011;10838;52.350;9.790;2023-11-21T08:10:50;6.73;;;6.13;;
9372;SDS011;10838;52.350;9.790;2023-11-21T08:13:21;7.30;;;6.60;;
9372;SDS011;10838;52.350;9.790;2023-11-21T08:15:48;7.43;;;6.73;;
9372;SDS011;10838;52.350;9.790;2023-11-21T08:18:14;8.00;;;7.20;;
9372;SDS011;10838;52.350;9.790;2023-11-21T08:20:42;8.90;;;7.70;;
9372;SDS011;10838;52.350;9.790;2023-11-21T08:23:12;10.57;;;8.77;;
9372;SDS011;10838;52.350;9.790;2023-11-21T08:25:42;10.60;;;8.93;;
9372;SDS011;10838;52.350;9.790;2023-11-21T08:28:08;11.30;;;8.60;;
9372;SDS011;10838;52.350;9.790;2023-11-21T08:30:35;18.47;;;10.33;;
9372;SDS011;10838;52.350;9.790;2023-11-21T08:33:02;13.90;;;10.00;;
9372;SDS011;10838;52.350;9.790;2023-11-21T08:35:29;11.47;;;10.07;;
9372;SDS011;10838;52.350;9.790;2023-11-21T08:37:55;11.77;;;10.03;;
9372;SDS011;10838;52.350;9.790;2023-11-21T08:40:22;15.47;;;10.43;;
9372;SDS011;10838;52.350;9.790;2023-11-21T08:42:51;16.00;;;10.80;;
9372;SDS011;10838;52.350;9.790;2023-11-21T08:45:18;13.03;;;10.40;;
9372;SDS011;10838;52.350;9.790;2023-11-21T08:47:46;13.50;;;10.33;;
9372;SDS011;10838;52.350;9.790;2023-11-21T08:50:12;16.10;;;11.23;;
9372;SDS011;10838;52.350;9.790;2023-11-21T08:52:40;12.67;;;10.20;;
9372;SDS011;10838;52.350;9.790;2023-11-21T08:55:07;12.17;;;10.13;;
9372;SDS011;10838;52.350;9.790;2023-11-21T08:57:37;11.20;;;10.10;;
9372;SDS011;10838;52.350;9.790;2023-11-21T09:00:07;14.23;;;11.27;;
9372;SDS011;10838;52.350;9.790;2023-11-21T09:02:36;11.37;;;10.17;;
9372;SDS011;10838;52.350;9.790;2023-11-21T09:05:03;13.00;;;10.27;;
9372;SDS011;10838;52.350;9.790;2023-11-21T09:07:31;14.20;;;9.87;;
9372;SDS011;10838;52.350;9.790;2023-11-21T09:09:57;12.50;;;9.60;;
9372;SDS011;10838;52.350;9.790;2023-11-21T09:12:24;10.90;;;9.70;;
9372;SDS011;10838;52.350;9.790;2023-11-21T09:14:51;12.93;;;9.60;;
9372;SDS011;10838;52.350;9.790;2023-11-21T09:17:19;11.33;;;8.73;;
9372;SDS011;10838;52.350;9.790;2023-11-21T09:19:45;10.90;;;9.03;;
9372;SDS011;10838;52.350;9.790;2023-11-21T09:22:16;10.70;;;8.47;;
9372;SDS011;10838;52.350;9.790;2023-11-21T09:24:42;8.80;;;8.00;;
9372;SDS011;10838;52.350;9.790;2023-11-21T09:27:09;9.63;;;8.10;;
9372;SDS011;10838;52.350;9.790;2023-11-21T09:29:36;11.80;;;8.30;;
9372;SDS011;10838;52.350;9.790;2023-11-21T09:32:03;8.83;;;7.93;;
9372;SDS011;10838;52.350;9.790;2023-11-21T09:34:32;10.40;;;7.13;;
9372;SDS011;10838;52.350;9.790;2023-11-21T09:37:01;8.30;;;7.50;;
9372;SDS011;10838;52.350;9.790;2023-11-21T09:39:30;7.93;;;7.23;;
9372;SDS011;10838;52.350;9.790;2023-11-21T09:41:59;10.17;;;7.83;;
9372;SDS011;10838;52.350;9.790;2023-11-21T09:44:35;12.23;;;7.83;;
9372;SDS011;10838;52.350;9.790;2023-11-21T09:47:14;7.27;;;6.60;;
9372;SDS011;10838;52.350;9.790;2023-11-21T09:49:42;7.50;;;6.80;;
9372;SDS011;10838;52.350;9.790;2023-11-21T09:52:13;7.37;;;6.67;;
9372;SDS011;10838;52.350;9.790;2023-11-21T09:54:47;8.07;;;6.77;;
9372;SDS011;10838;52.350;9.790;2023-11-21T09:57:16;7.53;;;6.37;;
9372;SDS011;10838;52.350;9.790;2023-11-21T09:59:43;7.33;;;6.40;;
9372;SDS011;10838;52.350;9.790;2023-11-21T10:02:11;6.87;;;6.23;;
9372;SDS011;10838;52.350;9.790;2023-11-21T10:04:38;8.10;;;6.70;;
9372;SDS011;10838;52.350;9.790;2023-11-21T10:07:06;6.60;;;6.00;;
9372;SDS011;10838;52.350;9.790;2023-11-21T10:09:34;7.17;;;6.47;;
9372;SDS011;10838;52.350;9.790;2023-11-21T10:12:03;7.20;;;6.60;;
9372;SDS011;10838;52.350;9.790;2023-11-21T10:14:33;11.13;;;7.23;;
9372;SDS011;10838;52.350;9.790;2023-11-21T10:17:03;8.30;;;7.03;;
9372;SDS011;10838;52.350;9.790;2023-11-21T10:19:30;7.87;;;7.10;;
9372;SDS011;10838;52.350;9.790;2023-11-21T10:21:57;7.60;;;6.80;;
9372;SDS011;10838;52.350;9.790;2023-11-21T10:24:27;8.40;;;6.83;;
9372;SDS011;10838;52.350;9.790;2023-11-21T10:26:54;7.13;;;6.47;;
9372;SDS011;10838;52.350;9.790;2023-11-21T10:29:21;8.57;;;6.33;;
9372;SDS011;10838;52.350;9.790;2023-11-21T10:31:48;7.00;;;6.33;;
9372;SDS011;10838;52.350;9.790;2023-11-21T10:34:16;7.20;;;5.90;;
9372;SDS011;10838;52.350;9.790;2023-11-21T10:36:44;6.50;;;5.90;;
9372;SDS011;10838;52.350;9.790;2023-11-21T10:39:13;6.80;;;6.13;;
9372;SDS011;10838;52.350;9.790;2023-11-21T10:41:44;5.70;;;5.20;;
9372;SDS011;10838;52.350;9.790;2023-11-21T10:44:13;5.43;;;5.03;;
9372;SDS011;10838;52.350;9.790;2023-11-21T10:46:45;6.10;;;5.23;;
9372;SDS011;10838;52.350;9.790;2023-11-21T10:49:15;5.70;;;5.20;;
9372;SDS011;10838;52.350;9.790;2023-11-21T10:51:43;8.13;;;5.60;;
9372;SDS011;10838;52.350;9.790;2023-11-21T10:54:10;6.30;;;5.70;;
9372;SDS011;10838;52.350;9.790;2023-11-21T10:56:37;5.57;;;5.07;;
9372;SDS011;10838;52.350;9.790;2023-11-21T10:59:08;6.07;;;5.53;;
9372;SDS011;10838;52.350;9.790;2023-11-21T11:01:39;5.23;;;4.83;;
9372;SDS011;10838;52.350;9.790;2023-11-21T11:04:08;7.97;;;5.50;;
9372;SDS011;10838;52.350;9.790;2023-11-21T11:06:39;5.67;;;5.13;;
9372;SDS011;10838;52.350;9.790;2023-11-21T11:09:07;5.90;;;5.30;;
9372;SDS011;10838;52.350;9.790;2023-11-21T11:11:37;6.10;;;5.17;;
9372;SDS011;10838;52.350;9.790;2023-11-21T11:14:06;5.50;;;5.00;;
9372;SDS011;10838;52.350;9.790;2023-11-21T11:16:36;9.00;;;5.43;;
9372;SDS011;10838;52.350;9.790;2023-11-21T11:19:04;6.17;;;5.53;;
9372;SDS011;10838;52.350;9.790;2023-11-21T11:21:34;5.40;;;4.90;;
9372;SDS011;10838;52.350;9.790;2023-11-21T11:27:05;5.67;;;5.23;;
9372;SDS011;10838;52.350;9.790;2023-11-21T11:29:45;6.33;;;5.17;;
9372;SDS011;10838;52.350;9.790;2023-11-21T11:32:21;5.80;;;4.93;;
9372;SDS011;10838;52.350;9.790;2023-11-21T11:35:04;5.60;;;5.10;;
9372;SDS011;10838;52.350;9.790;2023-11-21T11:37:36;5.70;;;5.10;;
9372;SDS011;10838;52.350;9.790;2023-11-21T11:40:05;10.03;;;5.60;;
9372;SDS011;10838;52.350;9.790;2023-11-21T11:42:33;6.20;;;5.60;;
9372;SDS011;10838;52.350;9.790;2023-11-21T11:45:02;6.57;;;5.70;;
9372;SDS011;10838;52.350;9.790;2023-11-21T11:47:44;6.13;;;5.50;;
9372;SDS011;10838;52.350;9.790;2023-11-21T11:50:13;10.43;;;5.80;;
9372;SDS011;10838;52.350;9.790;2023-11-21T11:52:42;5.10;;;4.60;;
9372;SDS011;10838;52.350;9.790;2023-11-21T11:55:09;5.53;;;4.87;;
9372;SDS011;10838;52.350;9.790;2023-11-21T11:57:37;5.50;;;5.00;;
9372;SDS011;10838;52.350;9.790;2023-11-21T12:00:09;6.07;;;4.97;;
9372;SDS011;10838;52.350;9.790;2023-11-21T12:02:41;8.87;;;4.50;;
9372;SDS011;10838;52.350;9.790;2023-11-21T12:05:11;5.20;;;4.80;;
9372;SDS011;10838;52.350;9.790;2023-11-21T12:07:41;7.87;;;4.57;;
9372;SDS011;10838;52.350;9.790;2023-11-21T12:10:11;4.73;;;4.33;;
9372;SDS011;10838;52.350;9.790;2023-11-21T12:12:41;4.90;;;4.40;;
9372;SDS011;10838;52.350;9.790;2023-11-21T12:15:10;5.93;;;4.80;;
9372;SDS011;10838;52.350;9.790;2023-11-21T12:17:37;4.67;;;3.80;;
9372;SDS011;10838;52.350;9.790;2023-11-21T12:20:05;4.53;;;4.23;;
9372;SDS011;10838;52.350;9.790;2023-11-21T12:22:39;6.90;;;4.50;;
9372;SDS011;10838;52.350;9.790;2023-11-21T12:25:07;5.43;;;4.93;;
9372;SDS011;10838;52.350;9.790;2023-11-21T12:27:34;4.83;;;4.40;;
9372;SDS011;10838;52.350;9.790;2023-11-21T12:30:01;6.73;;;4.53;;
9372;SDS011;10838;52.350;9.790;2023-11-21T12:32:29;5.80;;;4.67;;
9372;SDS011;10838;52.350;9.790;2023-11-21T12:34:55;4.83;;;4.20;;
9372;SDS011;10838;52.350;9.790;2023-11-21T12:37:21;5.00;;;4.50;;
9372;SDS011;10838;52.350;9.790;2023-11-21T12:39:48;4.73;;;4.33;;
9372;SDS011;10838;52.350;9.790;2023-11-21T12:42:15;4.87;;;4.43;;
9372;SDS011;10838;52.350;9.790;2023-11-21T12:44:42;4.80;;;4.33;;
9372;SDS011;10838;52.350;9.790;2023-11-21T12:47:15;4.53;;;3.90;;
9372;SDS011;10838;52.350;9.790;2023-11-21T12:49:44;7.60;;;4.57;;
9372;SDS011;10838;52.350;9.790;2023-11-21T12:52:11;4.83;;;4.37;;
9372;SDS011;10838;52.350;9.790;2023-11-21T12:54:37;4.77;;;3.93;;
9372;SDS011;10838;52.350;9.790;2023-11-21T12:57:04;5.23;;;4.70;;
9372;SDS011;10838;52.350;9.790;2023-11-21T12:59:33;4.77;;;4.37;;
9372;SDS011;10838;52.350;9.790;2023-11-21T13:01:59;4.87;;;4.47;;
9372;SDS011;10838;52.350;9.790;2023-11-21T13:04:30;4.60;;;4.20;;
9372;SDS011;10838;52.350;9.790;2023-11-21T13:07:04;4.20;;;3.90;;
9372;SDS011;10838;52.350;9.790;2023-11-21T13:09:38;5.03;;;4.30;;
9372;SDS011;10838;52.350;9.790;2023-11-21T13:12:03;4.90;;;4.37;;
9372;SDS011;10838;52.350;9.790;2023-11-21T13:14:33;7.03;;;4.40;;
9372;SDS011;10838;52.350;9.790;2023-11-21T13:17:00;5.27;;;4.80;;
9372;SDS011;10838;52.350;9.790;2023-11-21T13:19:27;6.03;;;4.80;;
9372;SDS011;10838;52.350;9.790;2023-11-21T13:21:53;5.57;;;4.30;;
9372;SDS011;10838;52.350;9.790;2023-11-21T13:24:21;5.10;;;4.70;;
9372;SDS011;10838;52.350;9.790;2023-11-21T13:26:48;4.77;;;4.30;;
9372;SDS011;10838;52.350;9.790;2023-11-21T13:29:14;4.57;;;4.17;;
9372;SDS011;10838;52.350;9.790;2023-11-21T13:31:41;4.23;;;3.87;;
9372;SDS011;10838;52.350;9.790;2023-11-21T13:34:08;5.17;;;4.43;;
9372;SDS011;10838;52.350;9.790;2023-11-21T13:36:34;6.40;;;4.23;;
9372;SDS011;10838;52.350;9.790;2023-11-21T13:39:01;8.20;;;4.57;;
9372;SDS011;10838;52.350;9.790;2023-11-21T13:41:33;5.97;;;5.40;;
9372;SDS011;10838;52.350;9.790;2023-11-21T13:44:03;5.77;;;5.17;;
9372;SDS011;10838;52.350;9.790;2023-11-21T13:46:40;4.53;;;4.13;;
9372;SDS011;10838;52.350;9.790;2023-11-21T13:49:07;5.20;;;4.70;;
9372;SDS011;10838;52.350;9.790;2023-11-21T13:51:35;5.27;;;4.53;;
9372;SDS011;10838;52.350;9.790;2023-11-21T13:54:05;6.30;;;4.23;;
9372;SDS011;10838;52.350;9.790;2023-11-21T13:56:35;6.00;;;5.10;;
9372;SDS011;10838;52.350;9.790;2023-11-21T13:59:03;5.03;;;4.07;;
9372;SDS011;10838;52.350;9.790;2023-11-21T14:01:38;4.20;;;3.80;;
9372;SDS011;10838;52.350;9.790;2023-11-21T14:04:19;7.03;;;5.60;;
9372;SDS011;10838;52.350;9.790;2023-11-21T14:07:00;7.30;;;6.07;;
9372;SDS011;10838;52.350;9.790;2023-11-21T14:09:43;4.97;;;4.47;;
9372;SDS011;10838;52.350;9.790;2023-11-21T14:12:11;4.27;;;3.87;;
9372;SDS011;10838;52.350;9.790;2023-11-21T14:14:39;7.90;;;5.13;;
9372;SDS011;10838;52.350;9.790;2023-11-21T14:17:06;11.27;;;8.63;;
9372;SDS011;10838;52.350;9.790;2023-11-21T14:19:32;4.20;;;3.80;;
9372;SDS011;10838;52.350;9.790;2023-11-21T14:22:01;4.57;;;4.17;;
9372;SDS011;10838;52.350;9.790;2023-11-21T14:24:28;5.50;;;3.97;;
9372;SDS011;10838;52.350;9.790;2023-11-21T14:26:57;4.70;;;3.70;;
9372;SDS011;10838;52.350;9.790;2023-11-21T14:29:26;4.47;;;3.40;;
9372;SDS011;10838;52.350;9.790;2023-11-21T14:31:54;4.33;;;4.00;;
9372;SDS011;10838;52.350;9.790;2023-11-21T14:34:22;4.37;;;3.70;;
9372;SDS011;10838;52.350;9.790;2023-11-21T14:36:49;4.60;;;3.97;;
9372;SDS011;10838;52.350;9.790;2023-11-21T14:39:16;4.80;;;4.30;;
9372;SDS011;10838;52.350;9.790;2023-11-21T14:41:48;7.20;;;4.07;;
9372;SDS011;10838;52.350;9.790;2023-11-21T14:44:15;4.73;;;4.33;;
9372;SDS011;10838;52.350;9.790;2023-11-21T14:46:43;6.00;;;3.80;;
9372;SDS011;10838;52.350;9.790;2023-11-21T14:49:11;8.10;;;5.57;;
9372;SDS011;10838;52.350;9.790;2023-11-21T14:51:44;4.70;;;4.23;;
9372;SDS011;10838;52.350;9.790;2023-11-21T14:54:25;6.50;;;4.40;;
9372;SDS011;10838;52.350;9.790;2023-11-21T14:57:04;7.67;;;3.80;;
9372;SDS011;10838;52.350;9.790;2023-11-21T14:59:34;3.93;;;3.63;;